createdAt,value
2022-09-06T00:04:15.085Z,16.90
2022-09-06T00:09:19.024Z,16.80
2022-09-06T00:14:25.945Z,16.70
2022-09-06T00:19:33.166Z,16.70
2022-09-06T00:24:41.582Z,16.60
2022-09-06T00:29:48.997Z,16.90
2022-09-06T00:34:55.976Z,16.80
2022-09-06T00:40:03.721Z,16.60
2022-09-06T00:45:12.684Z,16.80
2022-09-06T00:50:21.565Z,17.00
2022-09-06T00:55:29.164Z,16.80
2022-09-06T01:00:36.796Z,16.70
2022-09-06T01:06:13.827Z,16.90
2022-09-06T01:11:34.518Z,16.70
2022-09-06T01:16:45.944Z,16.70
2022-09-06T01:22:12.335Z,16.70
2022-09-06T01:27:40.173Z,16.60
2022-09-06T01:33:12.325Z,16.70
2022-09-06T01:38:19.755Z,16.60
2022-09-06T01:43:33.516Z,16.50
2022-09-06T01:48:54.276Z,16.40
2022-09-06T01:54:23.564Z,16.20
2022-09-06T01:59:56.144Z,16.20
2022-09-06T02:05:10.355Z,16.20
2022-09-06T02:10:39.675Z,16.30
2022-09-06T02:15:51.405Z,16.30
2022-09-06T02:21:00.895Z,16.20
2022-09-06T02:26:29.426Z,16.20
2022-09-06T02:31:55.197Z,16.20
2022-09-06T02:37:03.288Z,16.00
2022-09-06T02:42:13.016Z,15.90
2022-09-06T02:47:20.475Z,15.90
2022-09-06T02:52:27.915Z,16.00
2022-09-06T02:57:34.965Z,16.00
2022-09-06T03:02:41.913Z,16.00
2022-09-06T03:07:48.986Z,15.90
2022-09-06T03:12:56.815Z,15.90
2022-09-06T03:18:04.085Z,16.00
2022-09-06T03:23:13.716Z,15.80
2022-09-06T03:28:21.174Z,15.80
2022-09-06T03:33:28.526Z,15.80
2022-09-06T03:38:35.765Z,15.80
2022-09-06T03:43:42.626Z,15.80
2022-09-06T03:48:52.026Z,15.70
2022-09-06T03:54:01.929Z,15.70
2022-09-06T03:59:08.886Z,15.70
2022-09-06T04:04:16.075Z,15.80
2022-09-06T04:09:23.104Z,15.60
2022-09-06T04:14:30.086Z,15.60
2022-09-06T04:19:38.281Z,15.50
2022-09-06T04:24:45.404Z,15.50
2022-09-06T04:29:52.315Z,15.50
2022-09-06T04:34:59.224Z,15.50
2022-09-06T04:40:07.647Z,15.50
2022-09-06T04:45:14.925Z,15.60
2022-09-06T04:50:22.979Z,15.70
2022-09-06T04:55:31.765Z,15.60
2022-09-06T05:00:39.407Z,15.50
2022-09-06T05:05:46.470Z,15.60
2022-09-06T05:10:54.576Z,15.60
2022-09-06T05:16:09.603Z,15.70
2022-09-06T05:21:17.046Z,15.80
2022-09-06T05:26:24.186Z,15.90
2022-09-06T05:31:34.280Z,15.90
2022-09-06T05:36:42.416Z,15.80
2022-09-06T05:41:49.424Z,15.90
2022-09-06T05:46:56.192Z,15.80
2022-09-06T05:52:03.405Z,15.90
2022-09-06T05:57:10.584Z,15.90
2022-09-06T06:02:17.690Z,16.00
2022-09-06T06:07:25.274Z,16.20
2022-09-06T06:12:32.875Z,16.20
2022-09-06T06:17:39.885Z,16.20
2022-09-06T06:22:46.904Z,15.90
2022-09-06T06:27:54.614Z,15.90
2022-09-06T06:33:03.003Z,16.10
2022-09-06T06:38:09.910Z,16.20
2022-09-06T06:43:17.105Z,16.30
2022-09-06T06:48:24.204Z,16.30
2022-09-06T06:53:31.537Z,16.30
2022-09-06T06:58:38.626Z,16.40
2022-09-06T07:03:45.497Z,16.50
2022-09-06T07:08:52.577Z,16.60
2022-09-06T07:13:59.816Z,16.60
2022-09-06T07:19:06.961Z,16.70
2022-09-06T07:24:15.677Z,16.60
2022-09-06T07:29:23.006Z,16.60
2022-09-06T07:34:30.100Z,16.70
2022-09-06T07:39:37.550Z,16.80
2022-09-06T07:44:44.836Z,17.00
2022-09-06T07:55:00.465Z,17.20
2022-09-06T08:00:08.305Z,17.30
2022-09-06T08:10:23.997Z,17.40
2022-09-06T08:15:33.533Z,17.60
2022-09-06T08:20:40.805Z,17.60
2022-09-06T08:25:58.925Z,17.80
2022-09-06T08:31:15.509Z,18.10
2022-09-06T08:36:23.125Z,18.40
2022-09-06T08:41:43.569Z,19.10
2022-09-06T08:47:12.099Z,19.80
2022-09-06T08:52:45.329Z,20.20
2022-09-06T08:58:33.135Z,19.70
2022-09-06T09:03:42.560Z,19.20
2022-09-06T09:09:10.605Z,19.00
2022-09-06T09:14:24.836Z,18.90
2022-09-06T09:19:33.626Z,19.00
2022-09-06T09:24:40.765Z,19.20
2022-09-06T09:35:42.785Z,19.20
2022-09-06T09:40:56.385Z,20.10
2022-09-06T09:46:25.895Z,20.50
2022-09-06T09:51:38.934Z,20.90
2022-09-06T09:56:55.557Z,21.30
2022-09-06T10:02:06.655Z,21.80
2022-09-06T10:07:22.494Z,22.30
2022-09-06T10:12:36.046Z,21.80
2022-09-06T10:17:53.784Z,22.20
2022-09-06T10:28:45.139Z,22.60
2022-09-06T10:34:16.004Z,22.90
2022-09-06T10:39:42.235Z,23.50
2022-09-06T10:45:33.346Z,23.50
2022-09-06T10:51:09.645Z,23.30
2022-09-06T10:56:36.088Z,23.80
2022-09-06T11:01:56.185Z,23.70
2022-09-06T11:07:10.245Z,23.60
2022-09-06T11:12:42.489Z,23.60
2022-09-06T11:18:13.325Z,23.80
2022-09-06T11:23:42.645Z,23.80
2022-09-06T11:29:01.798Z,23.40
2022-09-06T11:34:27.465Z,23.60
2022-09-06T11:45:02.704Z,23.70
2022-09-06T11:50:29.594Z,23.60
2022-09-06T11:55:46.605Z,22.80
2022-09-06T12:01:20.833Z,22.20
2022-09-06T12:06:32.094Z,21.90
2022-09-06T12:11:45.437Z,21.80
2022-09-06T12:17:07.194Z,21.80
2022-09-06T12:22:40.584Z,22.50
2022-09-06T12:27:59.825Z,22.90
2022-09-06T12:33:16.765Z,22.40
2022-09-06T12:38:27.834Z,21.70
2022-09-06T12:43:36.824Z,21.50
2022-09-06T12:48:45.315Z,21.30
2022-09-06T12:54:05.365Z,21.50
2022-09-06T12:59:25.605Z,22.00
2022-09-06T13:04:40.455Z,22.90
2022-09-06T13:09:52.554Z,22.70
2022-09-06T13:15:20.961Z,23.00
2022-09-06T13:20:32.028Z,23.50
2022-09-06T13:25:51.606Z,23.80
2022-09-06T13:31:22.334Z,24.20
2022-09-06T13:36:34.363Z,24.10
2022-09-06T13:41:42.735Z,24.10
2022-09-06T13:46:53.905Z,24.10
2022-09-06T13:52:03.636Z,24.90
2022-09-06T13:57:10.486Z,24.70
2022-09-06T14:02:19.150Z,24.60
2022-09-06T14:07:26.095Z,24.10
2022-09-06T14:12:34.612Z,23.80
2022-09-06T14:17:41.696Z,23.00
2022-09-06T14:22:53.549Z,23.10
2022-09-06T14:28:01.577Z,23.30
2022-09-06T14:33:08.426Z,23.80
2022-09-06T14:38:15.856Z,23.60
2022-09-06T14:43:24.655Z,23.60
2022-09-06T14:48:31.734Z,23.90
2022-09-06T14:53:44.765Z,23.60
2022-09-06T14:58:50.865Z,23.20
2022-09-06T15:04:01.175Z,22.90
2022-09-06T15:09:08.685Z,22.90
2022-09-06T15:14:22.936Z,22.90
2022-09-06T15:19:33.517Z,22.70
2022-09-06T15:24:40.997Z,22.40
2022-09-06T15:29:48.135Z,22.50
2022-09-06T15:34:55.196Z,21.80
2022-09-06T15:40:01.988Z,21.70
2022-09-06T15:45:10.614Z,21.60
2022-09-06T15:50:34.470Z,21.50
2022-09-06T15:55:43.967Z,21.40
2022-09-06T16:01:06.262Z,21.50
2022-09-06T16:06:28.735Z,21.50
2022-09-06T16:11:37.212Z,21.40
2022-09-06T16:16:45.208Z,21.30
2022-09-06T16:21:52.017Z,21.30
2022-09-06T16:26:59.728Z,21.20
2022-09-06T16:32:07.076Z,21.00
2022-09-06T16:37:14.549Z,21.00
2022-09-06T16:42:21.822Z,20.90
2022-09-06T16:47:28.731Z,20.90
2022-09-06T16:52:35.957Z,20.80
2022-09-06T16:57:42.905Z,20.70
2022-09-06T17:02:50.093Z,20.60
2022-09-06T17:07:57.335Z,20.40
2022-09-06T17:13:04.445Z,20.50
2022-09-06T17:18:12.425Z,20.50
2022-09-06T17:23:19.844Z,20.40
2022-09-06T17:28:27.615Z,20.40
2022-09-06T17:33:36.015Z,20.60
2022-09-06T17:38:44.985Z,20.40
2022-09-06T17:43:54.407Z,20.20
2022-09-06T17:49:01.850Z,20.00
2022-09-06T17:54:10.744Z,20.10
2022-09-06T17:59:17.989Z,20.10
2022-09-06T18:04:25.096Z,20.20
2022-09-06T18:09:32.365Z,20.40
2022-09-06T18:14:39.844Z,20.20
2022-09-06T18:19:48.192Z,20.10
2022-09-06T18:24:58.342Z,20.20
2022-09-06T18:30:05.757Z,20.00
2022-09-06T18:35:12.975Z,19.90
2022-09-06T18:40:20.264Z,20.00
2022-09-06T18:45:27.202Z,19.90
2022-09-06T18:50:34.657Z,19.80
2022-09-06T18:55:45.019Z,19.70
2022-09-06T19:00:53.093Z,19.50
2022-09-06T19:06:06.844Z,19.50
2022-09-06T19:11:20.387Z,19.50
2022-09-06T19:16:27.873Z,19.40
2022-09-06T19:21:39.350Z,19.40
2022-09-06T19:26:46.336Z,19.20
2022-09-06T19:31:54.757Z,19.20
2022-09-06T19:37:02.899Z,19.10
2022-09-06T19:42:11.569Z,18.90
2022-09-06T19:47:18.775Z,18.70
2022-09-06T19:52:27.704Z,18.60
2022-09-06T19:57:40.426Z,18.70
2022-09-06T20:02:48.678Z,18.70
2022-09-06T20:07:57.185Z,18.70
2022-09-06T20:13:06.019Z,18.60
2022-09-06T20:18:15.307Z,18.60
2022-09-06T20:23:23.824Z,18.60
2022-09-06T20:28:32.504Z,18.40
2022-09-06T20:33:42.201Z,18.30
2022-09-06T20:38:51.384Z,18.30
2022-09-06T20:44:00.648Z,18.00
2022-09-06T20:49:09.658Z,17.90
2022-09-06T20:54:16.804Z,17.80
2022-09-06T20:59:25.275Z,17.50
2022-09-06T21:04:33.899Z,17.70
2022-09-06T21:09:42.121Z,17.80
2022-09-06T21:14:49.115Z,17.80
2022-09-06T21:19:56.716Z,17.70
2022-09-06T21:25:04.667Z,17.70
2022-09-06T21:30:13.709Z,17.80
2022-09-06T21:35:22.115Z,17.90
2022-09-06T21:40:29.431Z,17.70
2022-09-06T21:45:39.538Z,17.70
2022-09-06T21:50:49.705Z,17.80
2022-09-06T21:56:06.303Z,17.50
2022-09-06T22:01:15.716Z,17.60
2022-09-06T22:06:30.607Z,17.70
2022-09-06T22:11:41.095Z,17.50
2022-09-06T22:16:48.495Z,17.50
2022-09-06T22:21:59.597Z,17.60
2022-09-06T22:27:06.647Z,17.40
2022-09-06T22:32:13.795Z,17.60
2022-09-06T22:37:20.717Z,17.60
2022-09-06T22:42:28.165Z,17.60
2022-09-06T22:47:35.138Z,17.40
2022-09-06T22:52:44.483Z,17.40
2022-09-06T22:57:51.426Z,17.30
2022-09-06T23:02:59.447Z,17.10
2022-09-06T23:08:08.050Z,17.00
2022-09-06T23:13:15.795Z,16.90
2022-09-06T23:18:22.926Z,16.90
2022-09-06T23:23:29.716Z,16.90
2022-09-06T23:28:37.447Z,16.90
2022-09-06T23:33:45.897Z,16.90
2022-09-06T23:38:52.896Z,16.90
2022-09-06T23:44:01.076Z,17.00
2022-09-06T23:49:08.055Z,17.00
2022-09-06T23:54:17.974Z,16.90
2022-09-06T23:59:24.895Z,16.90
